sensor_id;sensor_type;location;lat;lon;timestamp;temperature;humidity
31597;DHT22;18201;50.978;7.034;2023-02-08T02:52:55;-3.30;99.90
31597;DHT22;18201;50.978;7.034;2023-02-08T02:53:35;-3.30;99.90
31597;DHT22;18201;50.978;7.034;2023-02-08T02:54:12;-3.30;99.90
31597;DHT22;18201;50.978;7.034;2023-02-08T02:54:49;-3.30;99.90
31597;DHT22;18201;50.978;7.034;2023-02-08T02:55:23;-3.40;99.90
31597;DHT22;18201;50.978;7.034;2023-02-08T02:55:59;-3.40;99.90
31597;DHT22;18201;50.978;7.034;2023-02-08T02:56:34;-3.40;99.90
31597;DHT22;18201;50.978;7.034;2023-02-08T02:57:09;-3.30;99.90
31597;DHT22;18201;50.978;7.034;2023-02-08T02:57:43;-3.40;99.90
31597;DHT22;18201;50.978;7.034;2023-02-08T02:58:17;-3.40;99.90
31597;DHT22;18201;50.978;7.034;2023-02-08T02:58:50;-3.30;99.90
31597;DHT22;18201;50.978;7.034;2023-02-08T02:59:22;-3.30;99.90
31597;DHT22;18201;50.978;7.034;2023-02-08T02:59:56;-3.30;99.90
31597;DHT22;18201;50.978;7.034;2023-02-08T03:00:29;-3.30;99.90
31597;DHT22;18201;50.978;7.034;2023-02-08T03:01:01;-3.30;99.90
31597;DHT22;18201;50.978;7.034;2023-02-08T03:01:33;-3.30;99.90
31597;DHT22;18201;50.978;7.034;2023-02-08T03:02:05;-3.30;99.90
31597;DHT22;18201;50.978;7.034;2023-02-08T03:02:35;-3.40;99.90
31597;DHT22;18201;50.978;7.034;2023-02-08T03:03:16;-3.40;99.90
31597;DHT22;18201;50.978;7.034;2023-02-08T03:03:50;-3.30;99.90
31597;DHT22;18201;50.978;7.034;2023-02-08T03:04:50;-3.40;99.90
31597;DHT22;18201;50.978;7.034;2023-02-08T03:05:22;-3.30;99.90
31597;DHT22;18201;50.978;7.034;2023-02-08T03:05:57;-3.30;99.90
31597;DHT22;18201;50.978;7.034;2023-02-08T03:06:38;-3.30;99.90
31597;DHT22;18201;50.978;7.034;2023-02-08T03:07:16;-3.30;99.90
31597;DHT22;18201;50.978;7.034;2023-02-08T03:08:08;-3.40;99.90
31597;DHT22;18201;50.978;7.034;2023-02-08T03:09:21;-3.40;99.90
31597;DHT22;18201;50.978;7.034;2023-02-08T03:10:03;-3.30;99.90
31597;DHT22;18201;50.978;7.034;2023-02-08T03:10:57;-3.30;99.90
31597;DHT22;18201;50.978;7.034;2023-02-08T03:11:32;-3.40;99.90
31597;DHT22;18201;50.978;7.034;2023-02-08T03:12:20;-3.30;99.90
31597;DHT22;18201;50.978;7.034;2023-02-08T03:12:57;-3.40;99.90
31597;DHT22;18201;50.978;7.034;2023-02-08T03:13:34;-3.40;99.90
31597;DHT22;18201;50.978;7.034;2023-02-08T03:14:28;-3.40;99.90
31597;DHT22;18201;50.978;7.034;2023-02-08T03:15:14;-3.40;99.90
31597;DHT22;18201;50.978;7.034;2023-02-08T03:16:01;-3.50;99.90
31597;DHT22;18201;50.978;7.034;2023-02-08T03:17:01;-3.40;99.90
31597;DHT22;18201;50.978;7.034;2023-02-08T03:17:41;-3.40;99.90
31597;DHT22;18201;50.978;7.034;2023-02-08T03:18:22;-3.40;99.90
31597;DHT22;18201;50.978;7.034;2023-02-08T03:19:05;-3.40;99.90
31597;DHT22;18201;50.978;7.034;2023-02-08T03:19:42;-3.40;99.90
31597;DHT22;18201;50.978;7.034;2023-02-08T03:20:21;-3.40;99.90
31597;DHT22;18201;50.978;7.034;2023-02-08T03:21:00;-3.40;99.90
31597;DHT22;18201;50.978;7.034;2023-02-08T03:21:40;-3.40;99.90
31597;DHT22;18201;50.978;7.034;2023-02-08T03:51:13;-3.80;99.90
31597;DHT22;18201;50.978;7.034;2023-02-08T03:51:46;-3.80;99.90
31597;DHT22;18201;50.978;7.034;2023-02-08T03:52:18;-3.80;99.90
31597;DHT22;18201;50.978;7.034;2023-02-08T03:52:50;-3.80;99.90
31597;DHT22;18201;50.978;7.034;2023-02-08T03:53:23;-3.80;99.90
31597;DHT22;18201;50.978;7.034;2023-02-08T03:53:57;-3.80;99.90
31597;DHT22;18201;50.978;7.034;2023-02-08T03:54:34;-3.80;99.90
31597;DHT22;18201;50.978;7.034;2023-02-08T03:55:11;-3.80;99.90
31597;DHT22;18201;50.978;7.034;2023-02-08T03:55:45;-3.80;99.90
31597;DHT22;18201;50.978;7.034;2023-02-08T03:56:20;-3.80;99.90
31597;DHT22;18201;50.978;7.034;2023-02-08T03:56:56;-3.80;99.90
31597;DHT22;18201;50.978;7.034;2023-02-08T03:57:33;-3.80;99.90
31597;DHT22;18201;50.978;7.034;2023-02-08T03:58:10;-3.80;99.90
31597;DHT22;18201;50.978;7.034;2023-02-08T03:58:47;-3.80;99.90
31597;DHT22;18201;50.978;7.034;2023-02-08T03:59:22;-3.80;99.90
31597;DHT22;18201;50.978;7.034;2023-02-08T03:59:55;-3.80;99.90
31597;DHT22;18201;50.978;7.034;2023-02-08T04:00:30;-3.80;99.90
31597;DHT22;18201;50.978;7.034;2023-02-08T04:01:05;-3.80;99.90
31597;DHT22;18201;50.978;7.034;2023-02-08T04:01:42;-3.80;99.90
31597;DHT22;18201;50.978;7.034;2023-02-08T04:02:18;-3.80;99.90
31597;DHT22;18201;50.978;7.034;2023-02-08T04:02:54;-3.70;99.90
31597;DHT22;18201;50.978;7.034;2023-02-08T04:03:27;-3.80;99.90
31597;DHT22;18201;50.978;7.034;2023-02-08T04:04:00;-3.80;99.90
31597;DHT22;18201;50.978;7.034;2023-02-08T04:04:33;-3.70;99.90
31597;DHT22;18201;50.978;7.034;2023-02-08T04:05:06;-3.70;99.90
31597;DHT22;18201;50.978;7.034;2023-02-08T04:05:39;-3.80;99.90
31597;DHT22;18201;50.978;7.034;2023-02-08T04:06:11;-3.80;99.90
31597;DHT22;18201;50.978;7.034;2023-02-08T04:06:43;-3.80;99.90
31597;DHT22;18201;50.978;7.034;2023-02-08T04:07:16;-3.70;99.90
31597;DHT22;18201;50.978;7.034;2023-02-08T04:07:47;-3.80;99.90
31597;DHT22;18201;50.978;7.034;2023-02-08T04:08:18;-3.70;99.90
31597;DHT22;18201;50.978;7.034;2023-02-08T04:08:50;-3.80;99.90
31597;DHT22;18201;50.978;7.034;2023-02-08T04:09:21;-3.70;99.90
31597;DHT22;18201;50.978;7.034;2023-02-08T04:09:52;-3.70;99.90
31597;DHT22;18201;50.978;7.034;2023-02-08T04:10:23;-3.70;99.90
31597;DHT22;18201;50.978;7.034;2023-02-08T04:10:54;-3.70;99.90
31597;DHT22;18201;50.978;7.034;2023-02-08T04:11:25;-3.70;99.90
31597;DHT22;18201;50.978;7.034;2023-02-08T04:11:56;-3.70;99.90
31597;DHT22;18201;50.978;7.034;2023-02-08T04:12:28;-3.70;99.90
31597;DHT22;18201;50.978;7.034;2023-02-08T04:12:59;-3.70;99.90
31597;DHT22;18201;50.978;7.034;2023-02-08T04:13:30;-3.70;99.90
31597;DHT22;18201;50.978;7.034;2023-02-08T04:14:01;-3.70;99.90
31597;DHT22;18201;50.978;7.034;2023-02-08T04:14:32;-3.70;99.90
31597;DHT22;18201;50.978;7.034;2023-02-08T04:15:04;-3.70;99.90
31597;DHT22;18201;50.978;7.034;2023-02-08T04:15:36;-3.70;99.90
31597;DHT22;18201;50.978;7.034;2023-02-08T04:16:08;-3.70;99.90
31597;DHT22;18201;50.978;7.034;2023-02-08T04:16:39;-3.70;99.90
31597;DHT22;18201;50.978;7.034;2023-02-08T04:17:10;-3.70;99.90
31597;DHT22;18201;50.978;7.034;2023-02-08T04:17:41;-3.70;99.90
31597;DHT22;18201;50.978;7.034;2023-02-08T04:18:12;-3.70;99.90
31597;DHT22;18201;50.978;7.034;2023-02-08T04:18:44;-3.70;99.90
31597;DHT22;18201;50.978;7.034;2023-02-08T04:19:15;-3.70;99.90
31597;DHT22;18201;50.978;7.034;2023-02-08T04:19:46;-3.70;99.90
31597;DHT22;18201;50.978;7.034;2023-02-08T04:20:18;-3.70;99.90
31597;DHT22;18201;50.978;7.034;2023-02-08T04:20:49;-3.70;99.90
31597;DHT22;18201;50.978;7.034;2023-02-08T04:21:20;-3.70;99.90
31597;DHT22;18201;50.978;7.034;2023-02-08T04:21:53;-3.70;99.90
31597;DHT22;18201;50.978;7.034;2023-02-08T04:22:24;-3.70;99.90
31597;DHT22;18201;50.978;7.034;2023-02-08T04:22:56;-3.70;99.90
31597;DHT22;18201;50.978;7.034;2023-02-08T04:23:27;-3.70;99.90
31597;DHT22;18201;50.978;7.034;2023-02-08T04:23:57;-3.60;99.90
31597;DHT22;18201;50.978;7.034;2023-02-08T04:24:30;-3.60;99.90
31597;DHT22;18201;50.978;7.034;2023-02-08T04:25:01;-3.60;99.90
31597;DHT22;18201;50.978;7.034;2023-02-08T04:25:32;-3.60;99.90
31597;DHT22;18201;50.978;7.034;2023-02-08T04:26:04;-3.60;99.90
31597;DHT22;18201;50.978;7.034;2023-02-08T04:26:37;-3.60;99.90
31597;DHT22;18201;50.978;7.034;2023-02-08T04:27:07;-3.60;99.90
31597;DHT22;18201;50.978;7.034;2023-02-08T04:27:39;-3.60;99.90
31597;DHT22;18201;50.978;7.034;2023-02-08T04:28:10;-3.60;99.90
31597;DHT22;18201;50.978;7.034;2023-02-08T04:28:41;-3.60;99.90
31597;DHT22;18201;50.978;7.034;2023-02-08T04:29:13;-3.60;99.90
31597;DHT22;18201;50.978;7.034;2023-02-08T04:29:44;-3.60;99.90
31597;DHT22;18201;50.978;7.034;2023-02-08T04:30:15;-3.60;99.90
31597;DHT22;18201;50.978;7.034;2023-02-08T04:30:47;-3.60;99.90
31597;DHT22;18201;50.978;7.034;2023-02-08T04:31:18;-3.60;99.90
31597;DHT22;18201;50.978;7.034;2023-02-08T04:31:49;-3.60;99.90
31597;DHT22;18201;50.978;7.034;2023-02-08T04:32:21;-3.60;99.90
31597;DHT22;18201;50.978;7.034;2023-02-08T04:32:52;-3.60;99.90
31597;DHT22;18201;50.978;7.034;2023-02-08T04:33:22;-3.60;99.90
31597;DHT22;18201;50.978;7.034;2023-02-08T04:33:54;-3.60;99.90
31597;DHT22;18201;50.978;7.034;2023-02-08T04:34:25;-3.60;99.90
31597;DHT22;18201;50.978;7.034;2023-02-08T04:34:56;-3.60;99.90
31597;DHT22;18201;50.978;7.034;2023-02-08T04:35:27;-3.60;99.90
31597;DHT22;18201;50.978;7.034;2023-02-08T04:35:59;-3.60;99.90
31597;DHT22;18201;50.978;7.034;2023-02-08T04:36:30;-3.60;99.90
31597;DHT22;18201;50.978;7.034;2023-02-08T04:37:03;-3.60;99.90
31597;DHT22;18201;50.978;7.034;2023-02-08T04:37:34;-3.60;99.90
31597;DHT22;18201;50.978;7.034;2023-02-08T04:38:05;-3.60;99.90
31597;DHT22;18201;50.978;7.034;2023-02-08T04:38:37;-3.60;99.90
31597;DHT22;18201;50.978;7.034;2023-02-08T04:39:09;-3.60;99.90
31597;DHT22;18201;50.978;7.034;2023-02-08T04:39:40;-3.60;99.90
31597;DHT22;18201;50.978;7.034;2023-02-08T04:40:12;-3.60;99.90
31597;DHT22;18201;50.978;7.034;2023-02-08T04:40:43;-3.60;99.90
31597;DHT22;18201;50.978;7.034;2023-02-08T04:41:14;-3.60;99.90
31597;DHT22;18201;50.978;7.034;2023-02-08T04:41:46;-3.60;99.90
31597;DHT22;18201;50.978;7.034;2023-02-08T04:42:16;-3.60;99.90
31597;DHT22;18201;50.978;7.034;2023-02-08T04:42:47;-3.60;99.90
31597;DHT22;18201;50.978;7.034;2023-02-08T04:43:19;-3.60;99.90
31597;DHT22;18201;50.978;7.034;2023-02-08T04:43:50;-3.60;99.90
31597;DHT22;18201;50.978;7.034;2023-02-08T04:44:21;-3.60;99.90
31597;DHT22;18201;50.978;7.034;2023-02-08T04:44:53;-3.60;99.90
31597;DHT22;18201;50.978;7.034;2023-02-08T04:45:24;-3.60;99.90
31597;DHT22;18201;50.978;7.034;2023-02-08T04:45:56;-3.60;99.90
31597;DHT22;18201;50.978;7.034;2023-02-08T04:46:28;-3.60;99.90
31597;DHT22;18201;50.978;7.034;2023-02-08T04:46:59;-3.60;99.90
31597;DHT22;18201;50.978;7.034;2023-02-08T04:47:31;-3.60;99.90
31597;DHT22;18201;50.978;7.034;2023-02-08T04:48:02;-3.60;99.90
31597;DHT22;18201;50.978;7.034;2023-02-08T04:48:33;-3.60;99.90
31597;DHT22;18201;50.978;7.034;2023-02-08T04:49:05;-3.60;99.90
31597;DHT22;18201;50.978;7.034;2023-02-08T04:49:36;-3.60;99.90
31597;DHT22;18201;50.978;7.034;2023-02-08T04:50:11;-3.60;99.90
31597;DHT22;18201;50.978;7.034;2023-02-08T04:50:43;-3.60;99.90
31597;DHT22;18201;50.978;7.034;2023-02-08T04:51:14;-3.60;99.90
31597;DHT22;18201;50.978;7.034;2023-02-08T04:51:45;-3.60;99.90
31597;DHT22;18201;50.978;7.034;2023-02-08T04:52:18;-3.60;99.90
31597;DHT22;18201;50.978;7.034;2023-02-08T04:52:49;-3.50;99.90
31597;DHT22;18201;50.978;7.034;2023-02-08T04:53:20;-3.60;99.90
31597;DHT22;18201;50.978;7.034;2023-02-08T04:53:51;-3.60;99.90
31597;DHT22;18201;50.978;7.034;2023-02-08T04:54:22;-3.50;99.90
31597;DHT22;18201;50.978;7.034;2023-02-08T04:54:53;-3.50;99.90
31597;DHT22;18201;50.978;7.034;2023-02-08T04:55:25;-3.60;99.90
31597;DHT22;18201;50.978;7.034;2023-02-08T04:55:56;-3.60;99.90
31597;DHT22;18201;50.978;7.034;2023-02-08T04:56:28;-3.60;99.90
31597;DHT22;18201;50.978;7.034;2023-02-08T04:57:00;-3.50;99.90
31597;DHT22;18201;50.978;7.034;2023-02-08T04:57:31;-3.50;99.90
31597;DHT22;18201;50.978;7.034;2023-02-08T04:58:02;-3.60;99.90
31597;DHT22;18201;50.978;7.034;2023-02-08T04:58:35;-3.60;99.90
31597;DHT22;18201;50.978;7.034;2023-02-08T04:59:07;-3.60;99.90
31597;DHT22;18201;50.978;7.034;2023-02-08T04:59:38;-3.60;99.90
31597;DHT22;18201;50.978;7.034;2023-02-08T05:00:11;-3.60;99.90
31597;DHT22;18201;50.978;7.034;2023-02-08T05:00:42;-3.60;99.90
31597;DHT22;18201;50.978;7.034;2023-02-08T05:01:14;-3.60;99.90
31597;DHT22;18201;50.978;7.034;2023-02-08T05:01:45;-3.60;99.90
31597;DHT22;18201;50.978;7.034;2023-02-08T05:33:04;-3.90;99.90
31597;DHT22;18201;50.978;7.034;2023-02-08T05:33:36;-3.90;99.90
31597;DHT22;18201;50.978;7.034;2023-02-08T05:34:07;-3.80;99.90
31597;DHT22;18201;50.978;7.034;2023-02-08T05:34:39;-3.90;99.90
31597;DHT22;18201;50.978;7.034;2023-02-08T05:35:10;-3.90;99.90
31597;DHT22;18201;50.978;7.034;2023-02-08T05:35:42;-3.90;99.90
31597;DHT22;18201;50.978;7.034;2023-02-08T05:36:14;-3.80;99.90
31597;DHT22;18201;50.978;7.034;2023-02-08T05:36:46;-3.90;99.90
31597;DHT22;18201;50.978;7.034;2023-02-08T05:37:16;-3.90;99.90
31597;DHT22;18201;50.978;7.034;2023-02-08T05:37:48;-3.80;99.90
31597;DHT22;18201;50.978;7.034;2023-02-08T05:38:19;-3.90;99.90
31597;DHT22;18201;50.978;7.034;2023-02-08T05:38:50;-3.80;99.90
31597;DHT22;18201;50.978;7.034;2023-02-08T05:39:23;-3.90;99.90
31597;DHT22;18201;50.978;7.034;2023-02-08T05:39:53;-3.90;99.90
31597;DHT22;18201;50.978;7.034;2023-02-08T05:40:24;-3.90;99.90
31597;DHT22;18201;50.978;7.034;2023-02-08T05:40:56;-3.90;99.90
31597;DHT22;18201;50.978;7.034;2023-02-08T05:41:27;-3.90;99.90
31597;DHT22;18201;50.978;7.034;2023-02-08T06:03:21;-4.10;99.90
31597;DHT22;18201;50.978;7.034;2023-02-08T06:03:53;-4.10;99.90
31597;DHT22;18201;50.978;7.034;2023-02-08T06:04:24;-4.10;99.90
31597;DHT22;18201;50.978;7.034;2023-02-08T06:04:55;-4.10;99.90
31597;DHT22;18201;50.978;7.034;2023-02-08T06:05:26;-4.10;99.90
31597;DHT22;18201;50.978;7.034;2023-02-08T06:05:59;-4.10;99.90
31597;DHT22;18201;50.978;7.034;2023-02-08T06:06:31;-4.10;99.90
31597;DHT22;18201;50.978;7.034;2023-02-08T06:07:02;-4.10;99.90
31597;DHT22;18201;50.978;7.034;2023-02-08T06:07:33;-4.10;99.90
31597;DHT22;18201;50.978;7.034;2023-02-08T06:08:05;-4.10;99.90
31597;DHT22;18201;50.978;7.034;2023-02-08T06:08:36;-4.10;99.90
31597;DHT22;18201;50.978;7.034;2023-02-08T06:09:07;-4.10;99.90
31597;DHT22;18201;50.978;7.034;2023-02-08T06:09:39;-4.10;99.90
31597;DHT22;18201;50.978;7.034;2023-02-08T06:10:10;-4.10;99.90
31597;DHT22;18201;50.978;7.034;2023-02-08T06:10:42;-4.10;99.90
31597;DHT22;18201;50.978;7.034;2023-02-08T06:11:13;-4.10;99.90
31597;DHT22;18201;50.978;7.034;2023-02-08T06:11:44;-4.20;99.90
31597;DHT22;18201;50.978;7.034;2023-02-08T06:12:16;-4.10;99.90
31597;DHT22;18201;50.978;7.034;2023-02-08T06:12:46;-4.10;99.90
31597;DHT22;18201;50.978;7.034;2023-02-08T06:13:17;-4.10;99.90
31597;DHT22;18201;50.978;7.034;2023-02-08T06:13:49;-4.10;99.90
31597;DHT22;18201;50.978;7.034;2023-02-08T06:14:20;-4.10;99.90
31597;DHT22;18201;50.978;7.034;2023-02-08T06:14:52;-4.10;99.90
31597;DHT22;18201;50.978;7.034;2023-02-08T06:15:23;-4.10;99.90
31597;DHT22;18201;50.978;7.034;2023-02-08T06:15:54;-4.10;99.90
31597;DHT22;18201;50.978;7.034;2023-02-08T06:16:26;-4.10;99.90
31597;DHT22;18201;50.978;7.034;2023-02-08T06:16:57;-4.10;99.90
31597;DHT22;18201;50.978;7.034;2023-02-08T06:17:28;-4.10;99.90
31597;DHT22;18201;50.978;7.034;2023-02-08T06:17:59;-4.10;99.90
31597;DHT22;18201;50.978;7.034;2023-02-08T06:18:31;-4.10;99.90
31597;DHT22;18201;50.978;7.034;2023-02-08T06:19:03;-4.10;99.90
31597;DHT22;18201;50.978;7.034;2023-02-08T06:19:34;-4.10;99.90
31597;DHT22;18201;50.978;7.034;2023-02-08T06:20:07;-4.10;99.90
31597;DHT22;18201;50.978;7.034;2023-02-08T06:20:38;-4.10;99.90
31597;DHT22;18201;50.978;7.034;2023-02-08T06:21:10;-4.10;99.90
31597;DHT22;18201;50.978;7.034;2023-02-08T06:21:42;-4.10;99.90
31597;DHT22;18201;50.978;7.034;2023-02-08T06:22:13;-4.10;99.90
31597;DHT22;18201;50.978;7.034;2023-02-08T06:22:44;-4.20;99.90
31597;DHT22;18201;50.978;7.034;2023-02-08T06:23:15;-4.20;99.90
31597;DHT22;18201;50.978;7.034;2023-02-08T06:23:46;-4.20;99.90
31597;DHT22;18201;50.978;7.034;2023-02-08T06:24:18;-4.10;99.90
31597;DHT22;18201;50.978;7.034;2023-02-08T09:41:06;-0.10;1.00
31597;DHT22;18201;50.978;7.034;2023-02-08T09:41:51;0.10;99.90
31597;DHT22;18201;50.978;7.034;2023-02-08T09:42:33;0.20;99.90
31597;DHT22;18201;50.978;7.034;2023-02-08T09:43:09;0.20;99.90
31597;DHT22;18201;50.978;7.034;2023-02-08T09:43:49;0.30;99.90
31597;DHT22;18201;50.978;7.034;2023-02-08T09:44:30;0.30;99.90
31597;DHT22;18201;50.978;7.034;2023-02-08T09:45:26;0.30;99.90
31597;DHT22;18201;50.978;7.034;2023-02-08T09:46:04;0.30;99.90
31597;DHT22;18201;50.978;7.034;2023-02-08T09:46:40;0.30;99.90
31597;DHT22;18201;50.978;7.034;2023-02-08T09:47:18;0.40;99.90
31597;DHT22;18201;50.978;7.034;2023-02-08T09:47:53;0.40;99.90
31597;DHT22;18201;50.978;7.034;2023-02-08T09:48:31;0.40;99.90
31597;DHT22;18201;50.978;7.034;2023-02-08T09:49:07;0.40;99.90
31597;DHT22;18201;50.978;7.034;2023-02-08T09:49:47;0.40;99.90
31597;DHT22;18201;50.978;7.034;2023-02-08T09:50:25;0.40;99.90
31597;DHT22;18201;50.978;7.034;2023-02-08T09:51:03;0.40;99.90
31597;DHT22;18201;50.978;7.034;2023-02-08T09:51:41;0.50;99.90
31597;DHT22;18201;50.978;7.034;2023-02-08T09:52:16;0.50;99.90
31597;DHT22;18201;50.978;7.034;2023-02-08T09:52:52;0.50;99.90
31597;DHT22;18201;50.978;7.034;2023-02-08T09:53:29;0.50;99.90
31597;DHT22;18201;50.978;7.034;2023-02-08T09:54:06;0.50;99.90
31597;DHT22;18201;50.978;7.034;2023-02-08T09:54:44;0.50;99.90
31597;DHT22;18201;50.978;7.034;2023-02-08T09:55:22;0.60;99.90
31597;DHT22;18201;50.978;7.034;2023-02-08T09:56:03;0.60;99.90
31597;DHT22;18201;50.978;7.034;2023-02-08T09:56:37;0.60;99.90
31597;DHT22;18201;50.978;7.034;2023-02-08T09:57:13;0.60;99.90
31597;DHT22;18201;50.978;7.034;2023-02-08T09:57:46;0.70;99.90
31597;DHT22;18201;50.978;7.034;2023-02-08T09:58:22;0.70;99.90
31597;DHT22;18201;50.978;7.034;2023-02-08T09:58:55;0.80;99.90
31597;DHT22;18201;50.978;7.034;2023-02-08T09:59:30;0.80;99.90
31597;DHT22;18201;50.978;7.034;2023-02-08T10:00:06;0.80;99.90
31597;DHT22;18201;50.978;7.034;2023-02-08T10:00:44;0.90;99.90
31597;DHT22;18201;50.978;7.034;2023-02-08T10:01:20;0.90;99.90
31597;DHT22;18201;50.978;7.034;2023-02-08T10:01:55;0.90;99.90
31597;DHT22;18201;50.978;7.034;2023-02-08T10:02:29;0.90;99.90
31597;DHT22;18201;50.978;7.034;2023-02-08T10:03:01;0.90;99.90
31597;DHT22;18201;50.978;7.034;2023-02-08T10:03:36;0.90;99.90
31597;DHT22;18201;50.978;7.034;2023-02-08T10:04:14;1.00;99.90
31597;DHT22;18201;50.978;7.034;2023-02-08T10:05:02;1.00;99.90
31597;DHT22;18201;50.978;7.034;2023-02-08T10:05:33;1.00;99.90
31597;DHT22;18201;50.978;7.034;2023-02-08T10:06:08;1.00;99.90
31597;DHT22;18201;50.978;7.034;2023-02-08T10:06:39;1.10;80.80
31597;DHT22;18201;50.978;7.034;2023-02-08T10:07:11;1.10;19.90
31597;DHT22;18201;50.978;7.034;2023-02-08T10:07:42;1.10;1.00
31597;DHT22;18201;50.978;7.034;2023-02-08T10:08:14;1.10;1.00
31597;DHT22;18201;50.978;7.034;2023-02-08T10:08:49;1.10;1.00
31597;DHT22;18201;50.978;7.034;2023-02-08T10:09:24;1.20;99.90
31597;DHT22;18201;50.978;7.034;2023-02-08T10:09:58;1.20;99.90
31597;DHT22;18201;50.978;7.034;2023-02-08T10:10:39;1.20;99.90
31597;DHT22;18201;50.978;7.034;2023-02-08T10:11:37;1.20;99.90
31597;DHT22;18201;50.978;7.034;2023-02-08T10:12:16;1.20;1.00
31597;DHT22;18201;50.978;7.034;2023-02-08T10:12:58;1.20;1.00
31597;DHT22;18201;50.978;7.034;2023-02-08T10:13:50;1.30;99.90
31597;DHT22;18201;50.978;7.034;2023-02-08T10:14:36;1.40;99.90
31597;DHT22;18201;50.978;7.034;2023-02-08T10:15:24;1.50;1.00
31597;DHT22;18201;50.978;7.034;2023-02-08T10:16:04;1.60;99.90
31597;DHT22;18201;50.978;7.034;2023-02-08T10:16:50;1.70;99.90
31597;DHT22;18201;50.978;7.034;2023-02-08T10:17:37;1.60;99.90
31597;DHT22;18201;50.978;7.034;2023-02-08T10:18:29;1.70;99.90
31597;DHT22;18201;50.978;7.034;2023-02-08T10:19:10;1.70;83.10
31597;DHT22;18201;50.978;7.034;2023-02-08T10:19:55;1.70;99.90
31597;DHT22;18201;50.978;7.034;2023-02-08T10:20:37;1.80;99.90
31597;DHT22;18201;50.978;7.034;2023-02-08T10:21:18;1.80;1.00
31597;DHT22;18201;50.978;7.034;2023-02-08T10:22:01;1.80;99.90
31597;DHT22;18201;50.978;7.034;2023-02-08T10:22:42;1.80;99.90
31597;DHT22;18201;50.978;7.034;2023-02-08T10:23:30;1.90;99.90
31597;DHT22;18201;50.978;7.034;2023-02-08T10:24:22;1.90;99.90
31597;DHT22;18201;50.978;7.034;2023-02-08T10:25:10;1.90;1.00
31597;DHT22;18201;50.978;7.034;2023-02-08T10:25:57;1.90;1.00
31597;DHT22;18201;50.978;7.034;2023-02-08T10:26:35;1.90;99.90
31597;DHT22;18201;50.978;7.034;2023-02-08T10:27:13;1.90;99.90
31597;DHT22;18201;50.978;7.034;2023-02-08T10:27:51;1.90;99.90
31597;DHT22;18201;50.978;7.034;2023-02-08T10:28:35;1.90;99.90
31597;DHT22;18201;50.978;7.034;2023-02-08T10:29:29;1.90;99.90
31597;DHT22;18201;50.978;7.034;2023-02-08T10:30:18;2.00;99.90
31597;DHT22;18201;50.978;7.034;2023-02-08T10:30:56;2.00;1.00
31597;DHT22;18201;50.978;7.034;2023-02-08T10:31:41;2.00;99.90
31597;DHT22;18201;50.978;7.034;2023-02-08T10:32:25;2.10;38.40
31597;DHT22;18201;50.978;7.034;2023-02-08T10:33:00;2.20;99.90
31597;DHT22;18201;50.978;7.034;2023-02-08T10:33:38;2.20;99.90
31597;DHT22;18201;50.978;7.034;2023-02-08T10:34:23;2.30;1.00
31597;DHT22;18201;50.978;7.034;2023-02-08T10:34:59;2.30;1.00
31597;DHT22;18201;50.978;7.034;2023-02-08T10:35:32;2.30;99.90
31597;DHT22;18201;50.978;7.034;2023-02-08T10:36:12;2.30;99.90
31597;DHT22;18201;50.978;7.034;2023-02-08T10:36:45;2.40;99.90
31597;DHT22;18201;50.978;7.034;2023-02-08T10:37:18;2.40;64.90
31597;DHT22;18201;50.978;7.034;2023-02-08T10:37:50;2.40;1.00
31597;DHT22;18201;50.978;7.034;2023-02-08T10:38:27;2.50;1.00
31597;DHT22;18201;50.978;7.034;2023-02-08T10:39:02;2.50;1.00
31597;DHT22;18201;50.978;7.034;2023-02-08T10:39:35;2.50;1.00
31597;DHT22;18201;50.978;7.034;2023-02-08T10:40:23;2.60;99.90
31597;DHT22;18201;50.978;7.034;2023-02-08T10:40:57;2.60;99.90
31597;DHT22;18201;50.978;7.034;2023-02-08T10:41:34;2.60;99.90
31597;DHT22;18201;50.978;7.034;2023-02-08T10:42:11;2.60;99.90
31597;DHT22;18201;50.978;7.034;2023-02-08T10:42:47;2.70;99.90
31597;DHT22;18201;50.978;7.034;2023-02-08T10:43:23;2.70;99.90
31597;DHT22;18201;50.978;7.034;2023-02-08T10:44:00;2.70;99.90
31597;DHT22;18201;50.978;7.034;2023-02-08T10:44:42;2.70;99.90
31597;DHT22;18201;50.978;7.034;2023-02-08T10:45:23;2.80;99.90
31597;DHT22;18201;50.978;7.034;2023-02-08T10:46:03;2.80;50.40
31597;DHT22;18201;50.978;7.034;2023-02-08T10:46:41;3.00;1.00
31597;DHT22;18201;50.978;7.034;2023-02-08T10:47:17;3.00;1.00
31597;DHT22;18201;50.978;7.034;2023-02-08T10:47:54;3.00;1.00
31597;DHT22;18201;50.978;7.034;2023-02-08T10:48:34;3.10;1.00
31597;DHT22;18201;50.978;7.034;2023-02-08T10:49:15;3.00;1.00
31597;DHT22;18201;50.978;7.034;2023-02-08T10:49:51;3.00;1.00
31597;DHT22;18201;50.978;7.034;2023-02-08T10:50:28;3.10;1.00
31597;DHT22;18201;50.978;7.034;2023-02-08T10:51:03;3.10;1.00
31597;DHT22;18201;50.978;7.034;2023-02-08T10:51:35;3.00;1.00
31597;DHT22;18201;50.978;7.034;2023-02-08T10:52:06;3.00;1.00
31597;DHT22;18201;50.978;7.034;2023-02-08T10:52:38;3.00;99.90
31597;DHT22;18201;50.978;7.034;2023-02-08T10:53:13;3.00;99.90
31597;DHT22;18201;50.978;7.034;2023-02-08T10:53:47;3.10;99.90
31597;DHT22;18201;50.978;7.034;2023-02-08T10:54:17;3.20;99.90
31597;DHT22;18201;50.978;7.034;2023-02-08T10:54:49;3.20;99.90
31597;DHT22;18201;50.978;7.034;2023-02-08T10:55:21;3.20;99.90
31597;DHT22;18201;50.978;7.034;2023-02-08T10:55:51;3.20;99.90
31597;DHT22;18201;50.978;7.034;2023-02-08T10:56:47;3.20;99.90
31597;DHT22;18201;50.978;7.034;2023-02-08T10:57:23;3.20;99.90
31597;DHT22;18201;50.978;7.034;2023-02-08T10:57:58;3.30;99.90
31597;DHT22;18201;50.978;7.034;2023-02-08T10:58:29;3.30;99.90
31597;DHT22;18201;50.978;7.034;2023-02-08T10:59:06;3.40;99.90
31597;DHT22;18201;50.978;7.034;2023-02-08T10:59:47;3.50;99.90
31597;DHT22;18201;50.978;7.034;2023-02-08T11:00:22;3.60;99.90
31597;DHT22;18201;50.978;7.034;2023-02-08T11:00:54;3.60;99.90
31597;DHT22;18201;50.978;7.034;2023-02-08T11:01:28;3.60;99.90
31597;DHT22;18201;50.978;7.034;2023-02-08T11:02:07;3.60;99.90
31597;DHT22;18201;50.978;7.034;2023-02-08T11:02:42;3.60;99.90
31597;DHT22;18201;50.978;7.034;2023-02-08T11:03:16;3.70;99.90
31597;DHT22;18201;50.978;7.034;2023-02-08T11:04:01;3.70;99.90
31597;DHT22;18201;50.978;7.034;2023-02-08T11:04:57;3.80;99.90
31597;DHT22;18201;50.978;7.034;2023-02-08T11:05:33;3.80;99.90
31597;DHT22;18201;50.978;7.034;2023-02-08T11:06:24;3.90;99.90
31597;DHT22;18201;50.978;7.034;2023-02-08T11:06:55;4.00;99.90
31597;DHT22;18201;50.978;7.034;2023-02-08T11:07:27;4.10;99.90
31597;DHT22;18201;50.978;7.034;2023-02-08T11:08:07;4.10;99.90
31597;DHT22;18201;50.978;7.034;2023-02-08T11:08:53;4.10;99.90
31597;DHT22;18201;50.978;7.034;2023-02-08T11:09:26;4.10;73.30
31597;DHT22;18201;50.978;7.034;2023-02-08T11:10:14;4.10;59.60
31597;DHT22;18201;50.978;7.034;2023-02-08T11:10:56;4.20;99.90
31597;DHT22;18201;50.978;7.034;2023-02-08T11:11:33;4.20;99.90
31597;DHT22;18201;50.978;7.034;2023-02-08T11:12:18;4.20;81.70
31597;DHT22;18201;50.978;7.034;2023-02-08T11:12:55;4.30;99.90
31597;DHT22;18201;50.978;7.034;2023-02-08T11:13:32;4.30;99.90
31597;DHT22;18201;50.978;7.034;2023-02-08T11:14:07;4.30;99.90
31597;DHT22;18201;50.978;7.034;2023-02-08T11:14:47;4.40;99.90
31597;DHT22;18201;50.978;7.034;2023-02-08T11:15:21;4.40;1.00